Time;durP1;ratioP1;P1;durP2;ratioP2;P2;SDS_P1;SDS_P2;PMS_P1;PMS_P2;Temp;Humidity;BMP_temperature;BMP_pressure;BME280_temperature;BME280_humidity;BME280_pressure;Samples;Min_cycle;Max_cycle;Signal;HPM_P1;HPM_P2
2022/08/10 00:01:21;;;;;;;1.87;1.00;;;23.00;50.70;;;;;;4979272;28;20937;-75
2022/08/10 00:03:47;;;;;;;2.00;1.10;;;23.00;50.90;;;;;;4961804;28;20583;-76
2022/08/10 00:06:13;;;;;;;1.60;1.00;;;22.90;51.00;;;;;;4961354;28;20583;-76
2022/08/10 00:08:39;;;;;;;2.83;1.17;;;22.90;51.10;;;;;;4959979;28;20282;-75
2022/08/10 00:11:05;;;;;;;1.50;0.80;;;22.90;51.30;;;;;;4959310;28;20633;-75
2022/08/10 00:13:31;;;;;;;1.90;1.30;;;22.80;51.20;;;;;;4958223;28;20567;-76
2022/08/10 00:15:57;;;;;;;2.80;1.50;;;22.80;51.30;;;;;;4974416;28;20567;-76
2022/08/10 00:18:24;;;;;;;2.07;1.10;;;22.80;51.50;;;;;;4977365;28;20196;-76
2022/08/10 00:20:49;;;;;;;3.30;1.10;;;22.70;51.60;;;;;;4960069;28;20995;-75
2022/08/10 00:23:16;;;;;;;2.20;1.50;;;22.70;51.70;;;;;;4975135;28;20575;-75
2022/08/10 00:25:42;;;;;;;2.20;1.47;;;22.70;51.80;;;;;;4958963;28;20172;-76
2022/08/10 00:28:07;;;;;;;4.47;1.67;;;22.70;51.90;;;;;;4975535;28;20614;-75
2022/08/10 00:30:33;;;;;;;1.70;1.23;;;22.60;52.00;;;;;;4975573;28;20559;-75
2022/08/10 00:32:59;;;;;;;2.87;1.60;;;22.60;52.10;;;;;;4957568;28;20172;-75
2022/08/10 00:35:25;;;;;;;2.27;1.30;;;22.50;52.30;;;;;;4974934;28;20259;-74
2022/08/10 00:37:51;;;;;;;1.90;1.20;;;22.50;52.30;;;;;;4974582;28;20591;-75
2022/08/10 00:40:16;;;;;;;2.37;1.30;;;22.50;52.40;;;;;;4975146;28;20183;-75
2022/08/10 00:42:42;;;;;;;3.80;1.60;;;22.40;52.50;;;;;;4975197;28;20578;-75
2022/08/10 00:45:08;;;;;;;3.47;1.60;;;22.40;52.60;;;;;;4957050;28;20172;-75
2022/08/10 00:47:35;;;;;;;1.97;1.17;;;22.40;52.80;;;;;;4974419;28;20187;-75
2022/08/10 00:50:02;;;;;;;1.80;1.37;;;22.40;52.90;;;;;;4957117;28;20988;-74
2022/08/10 00:52:29;;;;;;;1.90;1.33;;;22.30;52.90;;;;;;4956974;28;20586;-74
2022/08/10 00:54:56;;;;;;;2.93;1.40;;;22.30;53.00;;;;;;4973850;28;20678;-75
2022/08/10 00:57:24;;;;;;;3.77;1.40;;;22.30;53.10;;;;;;4958728;28;21510;-74
2022/08/10 00:59:50;;;;;;;2.00;1.17;;;22.30;53.30;;;;;;4956767;28;20583;-75
2022/08/10 01:02:16;;;;;;;1.80;1.03;;;22.20;53.30;;;;;;4956657;28;20567;-75
2022/08/10 01:04:41;;;;;;;2.77;1.30;;;22.20;53.40;;;;;;4973533;28;20992;-75
2022/08/10 01:07:20;;;;;;;3.40;1.40;;;22.20;53.50;;;;;;4973776;28;20258;-75
2022/08/10 01:09:50;;;;;;;1.93;1.30;;;22.10;53.80;;;;;;4973613;28;20202;-75
2022/08/10 01:12:43;;;;;;;2.37;1.40;;;22.10;53.90;;;;;;4973762;28;20551;-76
2022/08/10 01:15:21;;;;;;;2.43;1.60;;;22.10;54.20;;;;;;4956643;28;20594;-76
2022/08/10 01:17:57;;;;;;;2.10;1.50;;;22.10;54.20;;;;;;4976866;28;20599;-76
2022/08/10 01:20:26;;;;;;;3.03;1.97;;;22.00;54.30;;;;;;4949579;28;20602;-76
2022/08/10 01:23:07;;;;;;;3.00;1.87;;;22.00;54.30;;;;;;4982126;28;20579;-77
2022/08/10 01:25:58;;;;;;;3.40;1.70;;;21.90;54.40;;;;;;4964530;28;20567;-76
2022/08/10 01:28:30;;;;;;;2.33;1.50;;;21.90;54.70;;;;;;4981428;28;20642;-76
2022/08/10 01:30:59;;;;;;;2.13;1.67;;;21.90;54.50;;;;;;4962153;28;20579;-77
2022/08/10 01:33:41;;;;;;;2.70;1.60;;;21.80;54.60;;;;;;4977461;28;20710;-76
2022/08/10 01:36:10;;;;;;;3.93;1.30;;;21.80;54.80;;;;;;4957268;28;20586;-76
2022/08/10 01:38:40;;;;;;;2.00;1.37;;;21.80;54.90;;;;;;4961706;28;20603;-76
2022/08/10 01:41:17;;;;;;;2.73;1.40;;;21.70;55.10;;;;;;4981811;28;20587;-76
2022/08/10 01:43:48;;;;;;;4.63;1.33;;;21.70;55.50;;;;;;4976305;28;20653;-76
2022/08/10 01:46:18;;;;;;;2.33;1.60;;;21.70;55.50;;;;;;4978741;28;20605;-76
2022/08/10 01:48:50;;;;;;;2.27;1.70;;;21.60;55.60;;;;;;4980276;28;20618;-76
2022/08/10 01:51:42;;;;;;;2.17;1.67;;;21.60;56.00;;;;;;4962084;28;20685;-76
2022/08/10 01:54:14;;;;;;;2.47;1.47;;;21.50;56.30;;;;;;4980140;28;20568;-76
2022/08/10 01:56:44;;;;;;;2.87;1.67;;;21.50;56.10;;;;;;4964961;28;20641;-76
2022/08/10 01:59:29;;;;;;;2.43;1.53;;;21.50;56.40;;;;;;4983913;28;20605;-76
2022/08/10 02:02:04;;;;;;;5.10;1.73;;;21.50;57.00;;;;;;4982251;28;20590;-77
2022/08/10 02:04:36;;;;;;;4.73;1.60;;;21.50;57.00;;;;;;4984106;28;20585;-76
2022/08/10 02:07:05;;;;;;;3.10;1.43;;;21.40;57.10;;;;;;4966577;28;20602;-77
2022/08/10 02:09:35;;;;;;;3.00;1.97;;;21.40;57.30;;;;;;4965943;28;20627;-77
2022/08/10 02:12:05;;;;;;;2.37;1.60;;;21.40;58.20;;;;;;4987435;28;20654;-76
2022/08/10 02:14:34;;;;;;;1.90;1.60;;;21.30;57.70;;;;;;4987114;28;20575;-76
2022/08/10 02:17:06;;;;;;;3.23;1.53;;;21.30;58.00;;;;;;4986819;28;20599;-76
2022/08/10 02:19:35;;;;;;;3.77;1.90;;;21.30;58.20;;;;;;4988529;28;20570;-77
2022/08/10 02:22:02;;;;;;;2.70;1.60;;;21.30;58.40;;;;;;4989188;28;20547;-76
2022/08/10 02:24:29;;;;;;;2.40;1.40;;;21.20;58.50;;;;;;4972107;28;20637;-76
2022/08/10 02:26:56;;;;;;;3.40;2.00;;;21.20;58.90;;;;;;4987755;28;20967;-77
2022/08/10 02:29:23;;;;;;;2.33;1.30;;;21.10;59.10;;;;;;4988040;28;20623;-76
2022/08/10 02:31:49;;;;;;;3.03;1.63;;;21.10;59.40;;;;;;4987705;28;20573;-76
2022/08/10 02:34:16;;;;;;;3.00;1.47;;;21.10;59.70;;;;;;4986024;28;20669;-77
2022/08/10 02:36:50;;;;;;;2.83;1.47;;;21.10;60.10;;;;;;4985596;28;20617;-76
2022/08/10 02:39:19;;;;;;;3.33;1.53;;;21.10;60.90;;;;;;4993619;28;20575;-77
2022/08/10 02:42:03;;;;;;;3.67;1.53;;;21.00;60.80;;;;;;4988255;28;20585;-76
2022/08/10 02:44:32;;;;;;;2.53;1.33;;;20.90;61.60;;;;;;4981860;28;20629;-76
2022/08/10 02:47:06;;;;;;;2.70;1.40;;;20.90;61.70;;;;;;4948991;28;21295;-76
2022/08/10 02:49:41;;;;;;;1.90;1.33;;;20.90;62.20;;;;;;4963793;28;20681;-76
2022/08/10 02:52:15;;;;;;;2.20;1.57;;;20.90;62.60;;;;;;4984570;28;20633;-76
2022/08/10 02:54:52;;;;;;;2.00;1.40;;;20.80;62.90;;;;;;4976955;28;20662;-76
2022/08/10 02:57:26;;;;;;;2.70;1.60;;;20.80;63.50;;;;;;4978086;28;20996;-76
2022/08/10 02:59:57;;;;;;;3.70;1.70;;;20.80;63.50;;;;;;4986004;28;21145;-76
2022/08/10 03:02:40;;;;;;;3.70;1.50;;;20.70;63.90;;;;;;4983228;28;20567;-76
2022/08/10 03:05:10;;;;;;;2.50;1.57;;;20.70;64.80;;;;;;4967745;28;20570;-76
2022/08/10 03:07:42;;;;;;;3.80;1.60;;;20.70;64.60;;;;;;4983617;28;21134;-76
2022/08/10 03:10:18;;;;;;;2.27;1.10;;;20.70;65.30;;;;;;4983938;28;20611;-76
2022/08/10 03:12:48;;;;;;;3.50;1.70;;;20.70;65.70;;;;;;4983578;28;20582;-76
2022/08/10 03:15:17;;;;;;;2.00;1.27;;;20.60;65.90;;;;;;4950737;28;20590;-76
2022/08/10 03:17:47;;;;;;;2.10;1.30;;;20.60;66.40;;;;;;4982134;28;20602;-76
2022/08/10 03:20:14;;;;;;;2.07;1.43;;;20.60;67.10;;;;;;4983541;28;20610;-76
2022/08/10 03:22:42;;;;;;;2.30;1.33;;;20.60;67.40;;;;;;4982105;28;21216;-76
2022/08/10 03:25:12;;;;;;;2.70;1.90;;;20.60;67.70;;;;;;4979181;28;20575;-77
2022/08/10 03:27:40;;;;;;;2.77;1.60;;;20.60;68.40;;;;;;4983216;28;20591;-77
2022/08/10 03:30:07;;;;;;;3.07;1.83;;;20.60;68.50;;;;;;4984498;28;20625;-77
2022/08/10 03:32:34;;;;;;;2.33;1.37;;;20.60;68.90;;;;;;4982797;28;20569;-76
2022/08/10 03:35:00;;;;;;;3.10;1.80;;;20.50;69.20;;;;;;4983620;28;20564;-77
2022/08/10 03:37:26;;;;;;;2.73;1.40;;;20.50;69.60;;;;;;4982245;28;20638;-77
2022/08/10 03:39:53;;;;;;;3.00;1.80;;;20.50;70.00;;;;;;4981990;28;20571;-76
2022/08/10 03:42:22;;;;;;;3.83;1.60;;;20.40;70.40;;;;;;4981772;28;20594;-77
2022/08/10 03:44:49;;;;;;;3.00;1.40;;;20.40;70.90;;;;;;4980937;28;20567;-76
2022/08/10 03:47:20;;;;;;;2.80;1.90;;;20.40;71.40;;;;;;4963921;28;20607;-77
2022/08/10 03:49:47;;;;;;;3.57;1.60;;;20.40;72.20;;;;;;4980463;28;20626;-76
2022/08/10 03:52:15;;;;;;;3.47;1.70;;;20.40;72.40;;;;;;4983891;28;20567;-76
2022/08/10 03:54:42;;;;;;;4.07;2.27;;;20.30;72.80;;;;;;4985754;28;20563;-77
2022/08/10 03:57:09;;;;;;;3.13;1.50;;;20.30;73.30;;;;;;4983722;28;20718;-76
2022/08/10 03:59:35;;;;;;;3.80;2.67;;;20.30;73.80;;;;;;4988072;23;20659;-79
2022/08/10 04:02:03;;;;;;;3.50;1.67;;;20.30;74.30;;;;;;4962119;28;20587;-79
2022/08/10 04:04:28;;;;;;;3.30;1.70;;;20.20;74.70;;;;;;4989746;28;20586;-79
2022/08/10 04:06:57;;;;;;;1.90;1.50;;;20.20;75.20;;;;;;4974915;28;20583;-79
2022/08/10 04:09:26;;;;;;;2.63;1.60;;;20.20;75.90;;;;;;4974208;28;20219;-79
2022/08/10 04:11:52;;;;;;;2.03;1.40;;;20.20;76.40;;;;;;4974903;28;20581;-79
2022/08/10 04:14:17;;;;;;;3.37;2.27;;;20.20;76.60;;;;;;4975298;28;20567;-79
2022/08/10 04:16:43;;;;;;;4.07;2.07;;;20.20;77.00;;;;;;4957443;28;20184;-79
2022/08/10 04:19:11;;;;;;;2.73;2.10;;;20.10;77.50;;;;;;4978765;28;20192;-77
2022/08/10 04:21:39;;;;;;;3.30;1.87;;;20.10;78.00;;;;;;4990532;28;20211;-79
2022/08/10 04:24:08;;;;;;;3.10;1.80;;;20.10;78.40;;;;;;4975021;28;20658;-80
2022/08/10 04:26:34;;;;;;;3.73;2.23;;;20.10;78.90;;;;;;4974284;28;20574;-78
2022/08/10 04:29:00;;;;;;;3.00;1.70;;;20.10;79.20;;;;;;4989319;28;21102;-78
2022/08/10 04:31:28;;;;;;;2.23;1.63;;;20.10;79.70;;;;;;4974413;28;20172;-77
2022/08/10 04:33:56;;;;;;;4.73;2.07;;;20.20;80.20;;;;;;4974768;28;20990;-79
2022/08/10 04:36:23;;;;;;;3.40;1.80;;;20.20;80.60;;;;;;4974253;28;20681;-78
2022/08/10 04:38:51;;;;;;;6.10;2.10;;;20.20;81.00;;;;;;4975144;28;20603;-78
2022/08/10 04:41:17;;;;;;;2.80;2.00;;;20.20;81.30;;;;;;4975182;28;20621;-78
2022/08/10 04:43:43;;;;;;;3.43;1.70;;;20.20;81.50;;;;;;4973649;28;20610;-78
2022/08/10 04:46:09;;;;;;;3.40;1.67;;;20.20;81.70;;;;;;4973262;28;20668;-78
2022/08/10 04:48:35;;;;;;;3.20;2.50;;;20.20;82.00;;;;;;4990028;28;20722;-78
2022/08/10 04:51:01;;;;;;;2.33;1.90;;;20.20;82.30;;;;;;4973500;28;20183;-78
2022/08/10 04:53:27;;;;;;;2.73;2.10;;;20.30;82.60;;;;;;4974881;28;20535;-78
2022/08/10 04:55:52;;;;;;;3.93;2.40;;;20.30;82.90;;;;;;4961823;28;20180;-78
2022/08/10 04:58:18;;;;;;;8.03;2.20;;;20.40;83.40;;;;;;4973423;28;20932;-79
2022/08/10 05:00:44;;;;;;;4.50;2.13;;;20.40;83.70;;;;;;4974344;28;20582;-78
2022/08/10 05:03:10;;;;;;;2.83;2.17;;;20.40;83.80;;;;;;4974938;28;20318;-79
2022/08/10 05:05:36;;;;;;;3.20;1.70;;;20.50;84.00;;;;;;4974921;28;20564;-79
2022/08/10 05:08:01;;;;;;;3.10;1.90;;;20.50;84.20;;;;;;4978129;28;20176;-79
2022/08/10 05:10:27;;;;;;;5.10;1.90;;;20.60;84.50;;;;;;4961441;28;20690;-79
2022/08/10 05:12:53;;;;;;;6.90;2.03;;;20.70;84.70;;;;;;4979178;28;20176;-79
2022/08/10 05:15:21;;;;;;;2.80;1.77;;;20.70;84.70;;;;;;4976460;28;20230;-78
2022/08/10 05:17:47;;;;;;;4.10;2.43;;;20.70;84.80;;;;;;4977178;28;20266;-79
2022/08/10 05:20:13;;;;;;;2.60;1.80;;;20.80;85.00;;;;;;4991650;28;21092;-79
2022/08/10 05:22:46;;;;;;;3.33;2.07;;;20.90;85.20;;;;;;4977152;28;20263;-79
2022/08/10 05:25:14;;;;;;;2.77;1.90;;;21.00;85.40;;;;;;4974891;28;20186;-79
2022/08/10 05:27:41;;;;;;;3.63;1.83;;;21.00;85.10;;;;;;4991767;28;21169;-79
2022/08/10 05:30:09;;;;;;;4.27;2.17;;;21.10;85.30;;;;;;4978405;28;21006;-79
2022/08/10 05:32:36;;;;;;;3.70;1.90;;;21.10;85.30;;;;;;4993750;28;20599;-79
2022/08/10 05:35:02;;;;;;;3.83;2.47;;;21.20;85.40;;;;;;4973403;28;20575;-79
2022/08/10 05:37:29;;;;;;;5.10;2.47;;;21.30;85.60;;;;;;4972313;28;20586;-78
2022/08/10 05:39:55;;;;;;;2.73;1.80;;;21.30;85.60;;;;;;4974182;28;21011;-78
2022/08/10 05:42:22;;;;;;;5.60;2.70;;;21.40;85.70;;;;;;4988671;28;20610;-78
2022/08/10 05:44:48;;;;;;;3.43;1.87;;;21.50;85.80;;;;;;4973354;28;20646;-78
2022/08/10 05:47:15;;;;;;;2.40;1.73;;;21.50;85.80;;;;;;4972396;28;20571;-78
2022/08/10 05:49:41;;;;;;;3.63;2.27;;;21.60;85.80;;;;;;4973060;28;20211;-78
2022/08/10 05:52:07;;;;;;;4.03;1.80;;;21.70;85.80;;;;;;4973348;28;20569;-78
2022/08/10 05:54:32;;;;;;;2.33;1.83;;;21.70;86.10;;;;;;4971745;28;20175;-78
2022/08/10 05:56:59;;;;;;;3.90;1.90;;;21.80;86.40;;;;;;4956014;28;20255;-79
2022/08/10 05:59:32;;;;;;;3.30;2.10;;;22.00;86.40;;;;;;4972727;28;20622;-79
2022/08/10 06:02:01;;;;;;;3.37;1.97;;;22.30;87.10;;;;;;4962816;28;21009;-79
2022/08/10 06:04:36;;;;;;;6.73;3.30;;;23.00;87.80;;;;;;4952753;28;20963;-79
2022/08/10 06:07:05;;;;;;;9.47;3.47;;;23.50;87.10;;;;;;4952761;29;21241;-78
2022/08/10 06:09:32;;;;;;;9.10;2.90;;;24.00;86.20;;;;;;4954691;28;21247;-77
2022/08/10 06:12:00;;;;;;;5.27;2.60;;;24.20;85.00;;;;;;4952933;28;21206;-77
2022/08/10 06:17:13;;;;;;;4.10;2.63;;;24.30;83.30;;;;;;4957160;29;20635;-77
2022/08/10 06:19:40;;;;;;;4.60;2.80;;;24.60;83.30;;;;;;4957244;28;21019;-77
2022/08/10 06:22:06;;;;;;;4.10;2.57;;;25.00;84.00;;;;;;4957475;28;20942;-78
2022/08/10 06:24:39;;;;;;;5.20;3.03;;;25.80;84.80;;;;;;4956726;29;20568;-77
2022/08/10 06:27:06;;;;;;;5.63;2.83;;;26.70;84.80;;;;;;4940274;29;20591;-78
2022/08/10 06:29:35;;;;;;;7.27;2.80;;;27.80;84.30;;;;;;4955859;29;21004;-78
2022/08/10 06:32:03;;;;;;;6.00;3.03;;;28.80;81.80;;;;;;4939751;29;20920;-78
2022/08/10 06:34:37;;;;;;;2.90;1.70;;;29.80;79.50;;;;;;4955794;29;20576;-79
2022/08/10 06:37:06;;;;;;;6.10;2.70;;;30.70;76.60;;;;;;4939796;29;20955;-78
2022/08/10 06:39:32;;;;;;;4.83;2.40;;;31.70;74.20;;;;;;4956043;29;20613;-78
2022/08/10 06:42:04;;;;;;;3.17;1.90;;;32.60;71.40;;;;;;4957667;28;20588;-78
2022/08/10 06:44:44;;;;;;;4.70;2.00;;;33.50;67.80;;;;;;4924593;29;20594;-76
2022/08/10 06:47:11;;;;;;;6.10;2.53;;;34.30;63.60;;;;;;4958128;28;20572;-77
2022/08/10 06:49:38;;;;;;;4.67;1.40;;;35.20;62.30;;;;;;4955209;29;20640;-78
2022/08/10 06:52:09;;;;;;;5.70;1.97;;;35.90;58.80;;;;;;4955278;29;20580;-77
2022/08/10 06:54:36;;;;;;;2.70;1.40;;;36.50;55.20;;;;;;4971491;28;20598;-80
2022/08/10 06:57:03;;;;;;;2.00;1.30;;;36.90;53.20;;;;;;4955382;29;20611;-81
2022/08/10 06:59:50;;;;;;;3.30;1.23;;;37.40;51.20;;;;;;4971102;28;20653;-81
2022/08/10 07:02:24;;;;;;;3.03;1.53;;;37.60;47.80;;;;;;4955282;28;20574;-82
2022/08/10 07:05:10;;;;;;;6.87;1.43;;;38.20;46.80;;;;;;4956393;28;20564;-80
2022/08/10 07:07:38;;;;;;;5.50;1.50;;;38.50;45.60;;;;;;4956591;28;20584;-80
2022/08/10 07:10:05;;;;;;;2.83;1.40;;;38.90;44.50;;;;;;4971065;28;21286;-80
2022/08/10 07:12:34;;;;;;;2.13;1.67;;;39.40;44.00;;;;;;4956767;28;20598;-80
2022/08/10 07:15:01;;;;;;;3.07;1.47;;;39.90;43.10;;;;;;4954766;28;20570;-80
2022/08/10 07:17:29;;;;;;;2.33;1.20;;;40.50;42.30;;;;;;4956507;28;20576;-81
2022/08/10 07:19:58;;;;;;;2.17;1.00;;;40.90;41.20;;;;;;4955061;28;20665;-81
2022/08/10 07:22:30;;;;;;;2.23;1.20;;;41.30;39.60;;;;;;4957726;29;20571;-82
2022/08/10 07:24:57;;;;;;;2.80;1.17;;;41.40;36.00;;;;;;4975331;28;20592;-81
2022/08/10 07:27:24;;;;;;;3.93;1.43;;;41.60;37.60;;;;;;4941635;29;20592;-81
2022/08/10 07:29:53;;;;;;;3.00;1.20;;;41.90;37.30;;;;;;4955930;28;21047;-82
2022/08/10 07:32:21;;;;;;;4.67;1.33;;;42.20;36.60;;;;;;4955932;28;20575;-80
2022/08/10 07:34:49;;;;;;;2.40;1.37;;;42.50;35.50;;;;;;4954261;29;20576;-79
2022/08/10 07:37:17;;;;;;;2.10;1.50;;;42.60;35.20;;;;;;4954496;29;20619;-80
2022/08/10 07:39:45;;;;;;;2.23;1.40;;;42.90;35.20;;;;;;4938574;29;20651;-81
2022/08/10 07:42:13;;;;;;;2.10;1.50;;;43.10;34.00;;;;;;4970882;28;20576;-81
2022/08/10 07:44:43;;;;;;;2.73;1.40;;;43.20;33.70;;;;;;4955505;28;20929;-82
2022/08/10 07:47:41;;;;;;;3.50;1.10;;;43.30;33.10;;;;;;4955545;29;20583;-81
2022/08/10 07:50:11;;;;;;;2.70;1.63;;;43.30;31.40;;;;;;4954914;28;21100;-81
2022/08/10 07:52:38;;;;;;;3.20;1.47;;;43.10;32.00;;;;;;4956619;28;20936;-82
2022/08/10 07:55:09;;;;;;;2.00;1.17;;;43.00;31.80;;;;;;4970875;28;20583;-82
2022/08/10 07:57:37;;;;;;;3.50;1.20;;;43.10;31.20;;;;;;4939085;29;20935;-82
2022/08/10 08:00:09;;;;;;;1.93;1.07;;;43.30;31.30;;;;;;4961223;29;20626;-82
2022/08/10 08:02:48;;;;;;;4.50;1.27;;;43.60;30.30;;;;;;4970316;28;20650;-81
2022/08/10 08:05:14;;;;;;;3.60;1.20;;;43.60;30.10;;;;;;4954241;29;20571;-81
2022/08/10 08:07:42;;;;;;;2.40;1.63;;;43.30;29.50;;;;;;4954463;29;20611;-82
2022/08/10 08:10:13;;;;;;;2.13;1.53;;;43.00;29.40;;;;;;4953997;29;20643;-81
2022/08/10 08:12:40;;;;;;;2.20;1.17;;;42.80;29.60;;;;;;4952330;28;20627;-80
2022/08/10 08:15:09;;;;;;;1.87;1.23;;;42.90;29.80;;;;;;4969023;28;20617;-82
2022/08/10 08:17:38;;;;;;;1.60;1.10;;;42.90;29.50;;;;;;4974016;28;20571;-81
2022/08/10 08:20:05;;;;;;;2.73;1.00;;;42.90;29.30;;;;;;4974561;28;20605;-80
2022/08/10 08:22:31;;;;;;;1.90;1.40;;;42.80;29.20;;;;;;4974459;28;20642;-81
2022/08/10 08:24:59;;;;;;;1.80;1.03;;;42.80;29.20;;;;;;4972801;28;20571;-81
2022/08/10 08:27:27;;;;;;;1.70;1.20;;;42.90;28.80;;;;;;4957012;28;20586;-81
2022/08/10 08:29:54;;;;;;;3.63;1.50;;;42.90;28.70;;;;;;4974071;28;20717;-81
2022/08/10 08:32:22;;;;;;;4.10;1.60;;;43.10;28.30;;;;;;4973032;28;20610;-81
2022/08/10 08:34:53;;;;;;;2.27;1.23;;;43.10;28.30;;;;;;4989476;28;20576;-81
2022/08/10 08:37:21;;;;;;;3.10;1.20;;;42.90;27.90;;;;;;4978212;28;20579;-80
2022/08/10 08:39:47;;;;;;;4.17;1.10;;;42.60;27.70;;;;;;4957396;28;20651;-80
2022/08/10 08:42:31;;;;;;;2.80;1.30;;;42.50;28.00;;;;;;4936612;29;20577;-81
2022/08/10 08:45:16;;;;;;;1.77;1.10;;;42.50;28.10;;;;;;4935453;29;20173;-79
2022/08/10 08:47:48;;;;;;;3.37;1.00;;;42.70;28.50;;;;;;4935785;29;20568;-81
2022/08/10 08:50:22;;;;;;;3.63;1.00;;;42.90;28.50;;;;;;4934245;29;20696;-79
2022/08/10 08:53:27;;;;;;;2.47;0.97;;;43.20;28.50;;;;;;4919166;29;20568;-81
2022/08/10 08:56:06;;;;;;;2.27;0.90;;;43.70;29.10;;;;;;4950798;28;20611;-80
2022/08/10 08:58:48;;;;;;;4.10;1.00;;;44.30;28.50;;;;;;4951101;29;20675;-79
2022/08/10 09:02:04;;;;;;;2.20;0.93;;;44.60;28.30;;;;;;4936330;29;20595;-79
2022/08/10 09:04:51;;;;;;;2.57;1.50;;;45.10;28.60;;;;;;4858069;29;20639;-80
2022/08/10 09:07:51;;;;;;;2.33;0.90;;;45.20;25.60;;;;;;4934050;29;20964;-82
2022/08/10 09:10:54;;;;;;;2.03;0.93;;;45.10;26.90;;;;;;4936290;29;20691;-81
2022/08/10 09:13:38;;;;;;;4.37;1.30;;;44.80;26.60;;;;;;4939371;29;20735;-81
2022/08/10 09:16:31;;;;;;;1.70;0.93;;;44.60;26.40;;;;;;4935336;29;20935;-81
2022/08/10 09:19:09;;;;;;;2.27;1.17;;;44.50;25.70;;;;;;4950657;29;20687;-81
2022/08/10 09:21:59;;;;;;;3.40;1.50;;;44.50;26.20;;;;;;4935680;29;20926;-80
2022/08/10 09:24:40;;;;;;;3.03;1.10;;;44.20;24.90;;;;;;4950000;29;20588;-81
2022/08/10 09:27:39;;;;;;;4.40;1.00;;;43.90;26.10;;;;;;4937511;29;20587;-81
2022/08/10 09:30:09;;;;;;;3.43;1.03;;;44.10;26.70;;;;;;4953632;29;20612;-81
2022/08/10 09:32:47;;;;;;;2.53;1.07;;;44.20;26.20;;;;;;4956368;29;20576;-82
2022/08/10 09:35:28;;;;;;;2.73;1.10;;;44.40;27.00;;;;;;4955886;29;20578;-81
2022/08/10 09:38:12;;;;;;;3.70;1.30;;;44.60;26.40;;;;;;4954068;28;20583;-80
2022/08/10 09:40:55;;;;;;;2.33;0.87;;;44.80;26.00;;;;;;4952668;29;20659;-80
2022/08/10 09:43:46;;;;;;;4.80;1.30;;;45.00;26.70;;;;;;4952775;29;20643;-81
2022/08/10 09:46:40;;;;;;;4.67;1.30;;;45.30;26.20;;;;;;4953414;29;20602;-81
2022/08/10 09:49:28;;;;;;;1.97;1.00;;;45.40;25.80;;;;;;4954236;29;20649;-80
2022/08/10 09:51:57;;;;;;;2.53;0.90;;;45.20;25.60;;;;;;4954339;29;20572;-81
2022/08/10 09:54:38;;;;;;;2.10;1.30;;;45.00;25.50;;;;;;4952816;29;20969;-81
2022/08/10 09:57:30;;;;;;;2.10;1.10;;;45.00;25.80;;;;;;4954057;29;21232;-80
2022/08/10 10:00:07;;;;;;;2.03;0.97;;;45.10;26.40;;;;;;4953963;28;20640;-83
2022/08/10 10:03:05;;;;;;;1.80;1.13;;;45.20;25.60;;;;;;4952425;29;20603;-81
2022/08/10 10:05:48;;;;;;;3.37;1.07;;;45.00;24.30;;;;;;4953080;29;20587;-81
2022/08/10 10:08:22;;;;;;;2.17;0.90;;;44.70;24.70;;;;;;4936679;29;20607;-82
2022/08/10 10:11:10;;;;;;;2.63;0.93;;;44.40;25.20;;;;;;4952872;29;20674;-81
2022/08/10 10:13:40;;;;;;;2.27;1.20;;;44.30;24.90;;;;;;4950596;29;20595;-81
2022/08/10 10:16:24;;;;;;;2.53;1.10;;;44.00;24.80;;;;;;4950614;29;20880;-81
2022/08/10 10:19:28;;;;;;;2.33;1.07;;;44.00;24.80;;;;;;4957650;29;20640;-89
2022/08/10 10:22:36;;;;;;;2.83;1.13;;;43.70;25.30;;;;;;4958066;29;20571;-89
2022/08/10 10:25:14;;;;;;;1.47;1.00;;;43.70;25.60;;;;;;4966164;28;20599;-89
2022/08/10 10:28:22;;;;;;;2.70;1.23;;;43.70;25.40;;;;;;4969355;29;20667;-89
2022/08/10 10:31:10;;;;;;;4.13;1.00;;;43.60;24.70;;;;;;4932804;28;20666;-89
2022/08/10 10:33:48;;;;;;;2.23;1.00;;;43.30;25.10;;;;;;4968434;29;20579;-87
2022/08/10 10:36:16;;;;;;;2.00;0.90;;;43.30;25.00;;;;;;4950731;29;20584;-88
2022/08/10 10:38:44;;;;;;;2.93;1.30;;;43.20;25.00;;;;;;4948518;29;20643;-88
2022/08/10 10:41:48;;;;;;;3.57;0.93;;;43.10;24.60;;;;;;4946291;29;20572;-90
2022/08/10 10:44:41;;;;;;;1.47;0.87;;;43.00;24.90;;;;;;4944318;29;20648;-89
2022/08/10 10:47:56;;;;;;;2.40;1.00;;;43.00;25.20;;;;;;4961288;28;20607;-87
2022/08/10 10:50:50;;;;;;;1.80;1.20;;;43.20;25.30;;;;;;4972375;28;20630;-85
2022/08/10 10:53:26;;;;;;;1.80;1.10;;;43.30;24.50;;;;;;4977387;28;20572;-86
2022/08/10 10:56:18;;;;;;;3.23;1.10;;;43.20;24.50;;;;;;4951802;29;20667;-85
2022/08/10 10:58:55;;;;;;;2.23;1.10;;;43.10;24.30;;;;;;4956963;28;20639;-85
2022/08/10 11:01:28;;;;;;;1.60;1.00;;;43.00;24.20;;;;;;4963021;29;20646;-85
2022/08/10 11:04:31;;;;;;;2.17;1.00;;;43.00;23.90;;;;;;4972857;29;20607;-85
2022/08/10 11:07:09;;;;;;;3.67;1.10;;;42.90;23.50;;;;;;4971207;29;20575;-86
2022/08/10 11:09:41;;;;;;;4.33;1.07;;;42.90;24.70;;;;;;4971110;29;20622;-86
2022/08/10 11:12:28;;;;;;;2.57;1.07;;;42.90;24.20;;;;;;4969668;28;20576;-86
2022/08/10 11:15:13;;;;;;;2.27;1.10;;;42.80;23.20;;;;;;4969631;29;20571;-85
2022/08/10 11:17:49;;;;;;;1.60;0.90;;;42.50;23.80;;;;;;4976952;29;20568;-87
2022/08/10 11:20:25;;;;;;;2.10;1.00;;;42.20;23.50;;;;;;4977661;28;20674;-85
2022/08/10 11:23:03;;;;;;;3.27;1.13;;;42.00;23.70;;;;;;4969287;28;20575;-88
2022/08/10 11:25:37;;;;;;;2.70;1.30;;;41.60;23.50;;;;;;4961484;29;20662;-88
2022/08/10 11:28:18;;;;;;;2.07;0.97;;;41.40;23.50;;;;;;4956070;29;20571;-86
2022/08/10 11:31:12;;;;;;;1.60;1.30;;;41.30;23.70;;;;;;4953017;28;20622;-88
2022/08/10 11:34:01;;;;;;;1.93;1.10;;;41.20;23.50;;;;;;4954205;29;20569;-86
2022/08/10 11:36:48;;;;;;;2.13;1.10;;;41.10;23.80;;;;;;4945648;29;20760;-89
2022/08/10 11:39:20;;;;;;;3.43;1.00;;;40.90;23.90;;;;;;4941698;29;20647;-85
2022/08/10 11:42:09;;;;;;;1.70;1.03;;;40.60;24.30;;;;;;4956546;29;20936;-88
2022/08/10 11:44:58;;;;;;;1.60;0.90;;;40.60;24.60;;;;;;4971974;29;20589;-88
2022/08/10 11:47:40;;;;;;;1.40;0.90;;;40.80;24.80;;;;;;4944446;29;20663;-85
2022/08/10 11:50:21;;;;;;;4.60;1.03;;;40.90;24.60;;;;;;4940103;29;20632;-86
2022/08/10 11:53:09;;;;;;;2.57;1.30;;;41.00;24.70;;;;;;4956997;29;20611;-86
2022/08/10 11:55:35;;;;;;;1.70;1.00;;;41.10;24.40;;;;;;4957252;29;20663;-88
2022/08/10 12:01:30;;;;;;;3.10;0.90;;;40.60;24.10;;;;;;4917425;29;20615;-90
2022/08/10 12:04:06;;;;;;;3.47;1.37;;;40.40;24.10;;;;;;4901451;29;20612;-86
2022/08/10 12:06:34;;;;;;;1.50;1.10;;;39.70;23.70;;;;;;4921646;29;20606;-88
2022/08/10 12:09:03;;;;;;;3.57;1.10;;;39.40;24.30;;;;;;4935070;28;20635;-88
2022/08/10 12:11:30;;;;;;;2.80;1.20;;;39.30;24.80;;;;;;4959319;28;20650;-89
2022/08/10 12:14:16;;;;;;;3.50;1.00;;;39.20;24.80;;;;;;4963680;28;21131;-87
2022/08/10 12:16:47;;;;;;;2.07;1.00;;;39.10;24.70;;;;;;4969245;28;20580;-87
2022/08/10 12:22:17;;;;;;;1.60;1.20;;;39.20;24.50;;;;;;4989944;28;20637;-86
2022/08/10 12:24:54;;;;;;;3.70;1.50;;;39.20;24.90;;;;;;4932792;28;21109;-85
2022/08/10 12:27:22;;;;;;;3.03;1.40;;;39.10;24.70;;;;;;4982498;28;20589;-88
2022/08/10 12:29:54;;;;;;;4.13;1.10;;;38.90;24.60;;;;;;4984926;28;21197;-88
2022/08/10 12:32:29;;;;;;;1.80;1.10;;;38.60;24.60;;;;;;4933952;28;20590;-86
2022/08/10 12:35:19;;;;;;;1.80;1.00;;;38.40;24.80;;;;;;4976214;28;20668;-86
2022/08/10 12:38:07;;;;;;;2.00;1.13;;;38.30;25.00;;;;;;4973779;28;20582;-85
2022/08/10 12:40:44;;;;;;;2.83;1.10;;;38.20;25.20;;;;;;4979778;28;20660;-86
2022/08/10 12:43:29;;;;;;;2.17;1.00;;;38.20;25.30;;;;;;4983564;28;20979;-87
2022/08/10 12:46:08;;;;;;;2.43;0.90;;;38.10;25.60;;;;;;4980528;28;21138;-86
2022/08/10 12:49:02;;;;;;;1.80;1.23;;;38.10;25.60;;;;;;4992534;28;20613;-85
2022/08/10 12:51:32;;;;;;;2.73;1.17;;;37.80;25.40;;;;;;4974288;28;20578;-85
2022/08/10 12:54:09;;;;;;;3.40;1.50;;;37.60;25.50;;;;;;4965144;28;20625;-86
2022/08/10 12:56:51;;;;;;;2.03;1.63;;;37.20;25.60;;;;;;4972844;28;20591;-87
2022/08/10 12:59:19;;;;;;;4.70;1.20;;;37.00;25.70;;;;;;4982585;28;20645;-88
2022/08/10 13:01:51;;;;;;;1.87;1.20;;;36.80;25.50;;;;;;4961592;28;20560;-88
2022/08/10 13:04:25;;;;;;;1.60;0.97;;;36.40;25.80;;;;;;4959147;28;20571;-88
2022/08/10 13:06:52;;;;;;;2.63;1.10;;;36.00;25.80;;;;;;4965189;28;20987;-88
2022/08/10 13:09:22;;;;;;;4.80;1.03;;;35.90;26.00;;;;;;4983806;28;21064;-90
2022/08/10 13:11:52;;;;;;;3.00;1.20;;;35.50;26.10;;;;;;4994166;28;20585;-90
2022/08/10 13:14:32;;;;;;;3.20;1.30;;;35.40;26.40;;;;;;4995418;28;20561;-90
2022/08/10 13:17:00;;;;;;;2.30;1.37;;;35.10;27.10;;;;;;4969735;28;20687;-89
2022/08/10 13:19:32;;;;;;;2.93;1.10;;;34.90;26.80;;;;;;4984580;28;20644;-89
2022/08/10 13:22:01;;;;;;;2.83;1.20;;;34.80;27.20;;;;;;4987382;28;20616;-87
2022/08/10 13:24:32;;;;;;;3.83;1.43;;;34.70;27.50;;;;;;4976291;28;20583;-87
2022/08/10 13:27:08;;;;;;;4.73;1.30;;;34.60;27.70;;;;;;4970199;28;20576;-86
2022/08/10 13:29:39;;;;;;;3.50;1.20;;;34.50;28.00;;;;;;4960983;28;20640;-84